Center Hill Observed Data For Previous 48 Hours

Caption
Day and Hour Reservoir Elevation (behind dam)* Tailwater Elevation (below dam)* Average Hourly Discharge*
9/20/2018 1 AM CDT 632.25 476.05 250
9/20/2018 2 AM CDT 632.25 476.05 250
9/20/2018 3 AM CDT 632.25 476.05 250
9/20/2018 4 AM CDT 632.25 476.05 250
9/20/2018 5 AM CDT 632.26 476.06 250
9/20/2018 6 AM CDT 632.26 476.06 250
9/20/2018 7 AM CDT 632.26 476.06 250
9/20/2018 8 AM CDT 632.26 476.16 275
9/20/2018 9 AM CDT 632.26 476.16 300
9/20/2018 10 AM CDT 632.26 476.16 300
9/20/2018 11 AM CDT 632.26 476.16 275
9/20/2018 12 PM CDT 632.26 476.09 250
9/20/2018 1 PM CDT 632.26 481.46 5,810
9/20/2018 2 PM CDT 632.25 482.25 5,855
9/20/2018 3 PM CDT 632.23 482.43 5,855
9/20/2018 4 PM CDT 632.23 482.63 5,875
9/20/2018 5 PM CDT 632.23 482.73 5,870
9/20/2018 6 PM CDT 632.22 479.02 1,800
9/20/2018 7 PM CDT 632.22 478.12 250
9/20/2018 8 PM CDT 632.22 477.22 250
9/20/2018 9 PM CDT 632.22 476.32 250
9/20/2018 10 PM CDT 632.22 476.22 250
9/20/2018 11 PM CDT 632.22 476.12 250
9/21/2018 12 AM CDT 632.22 476.12 250
9/21/2018 1 AM CDT 632.22 476.12 250
9/21/2018 2 AM CDT 632.22 476.12 250
9/21/2018 3 AM CDT 632.22 476.12 250
9/21/2018 4 AM CDT 632.22 476.12 250
9/21/2018 5 AM CDT 632.23 476.13 250
9/21/2018 6 AM CDT 632.23 476.03 250
9/21/2018 7 AM CDT 632.23 476.03 250
9/21/2018 8 AM CDT 632.23 476.03 250
9/21/2018 9 AM CDT 632.23 476.03 250
9/21/2018 10 AM CDT 632.23 476.03 250
9/21/2018 11 AM CDT 632.23 476.03 250
9/21/2018 12 PM CDT 632.23 476.03 250
9/21/2018 1 PM CDT 632.23 481.53 5,830
9/21/2018 2 PM CDT 632.23 482.23 5,855
9/21/2018 3 PM CDT 632.22 482.42 5,855
9/21/2018 4 PM CDT 632.20 482.70 5,870
9/21/2018 5 PM CDT 632.18 482.68 5,870
9/21/2018 6 PM CDT 632.18 479.08 250
9/21/2018 7 PM CDT 632.18 477.58 250
9/21/2018 8 PM CDT 632.18 476.78 250
9/21/2018 9 PM CDT 632.16 476.36 250
9/21/2018 10 PM CDT 632.16 476.16 250
9/21/2018 11 PM CDT 632.16 476.16 250
9/22/2018 12 AM CDT 632.16 476.16 250
9/22/2018 1 AM CDT 632.17 476.07 250
9/22/2018 2 AM CDT 632.17 476.07 250
9/22/2018 3 AM CDT 632.17 476.07 250
9/22/2018 4 AM CDT 632.17 476.07 250
9/22/2018 5 AM CDT 632.16 476.06 250
9/22/2018 6 AM CDT 632.16 476.06 250
9/22/2018 7 AM CDT 632.17 476.07 250
9/22/2018 8 AM CDT 632.17 476.07 250
9/22/2018 9 AM CDT 632.17 476.07 250
9/22/2018 10 AM CDT 632.17 476.07 250
9/22/2018 11 AM CDT 632.17 476.07 250
9/22/2018 12 PM CDT 632.17 476.07 250
9/22/2018 1 PM CDT 632.17 476.07 250
9/22/2018 2 PM CDT 632.17 476.17 250
9/22/2018 3 PM CDT 632.17 476.17 250

Elevations are in feet above sea level. Discharges are in cubic feet per second and are reported at the end of the hour.